sensor_id;sensor_type;location;lat;lon;timestamp;pressure;altitude;pressure_sealevel;temperature;humidity
75629;BME280;64213;46.452;16.994;2023-09-07T00:01:00;100413.37;;;16.64;83.33
75629;BME280;64213;46.452;16.994;2023-09-07T00:04:03;100407.31;;;16.62;82.54
75629;BME280;64213;46.452;16.994;2023-09-07T00:07:06;100410.84;;;16.63;83.44
75629;BME280;64213;46.452;16.994;2023-09-07T00:10:08;100411.69;;;16.63;82.71
75629;BME280;64213;46.452;16.994;2023-09-07T00:13:11;100417.56;;;16.57;83.80
75629;BME280;64213;46.452;16.994;2023-09-07T00:16:13;100415.25;;;16.52;83.71
75629;BME280;64213;46.452;16.994;2023-09-07T00:19:16;100406.53;;;16.50;84.27
75629;BME280;64213;46.452;16.994;2023-09-07T00:22:19;100410.03;;;16.51;84.54
75629;BME280;64213;46.452;16.994;2023-09-07T00:25:21;100409.31;;;16.49;84.04
75629;BME280;64213;46.452;16.994;2023-09-07T00:28:24;100405.09;;;16.46;84.33
75629;BME280;64213;46.452;16.994;2023-09-07T00:31:26;100408.28;;;16.40;85.05
75629;BME280;64213;46.452;16.994;2023-09-07T00:34:29;100408.62;;;16.36;84.55
75629;BME280;64213;46.452;16.994;2023-09-07T00:37:32;100417.03;;;16.31;85.24
75629;BME280;64213;46.452;16.994;2023-09-07T00:40:35;100410.22;;;16.27;85.03
75629;BME280;64213;46.452;16.994;2023-09-07T00:43:38;100411.94;;;16.28;84.60
75629;BME280;64213;46.452;16.994;2023-09-07T00:46:43;100415.81;;;16.24;84.58
75629;BME280;64213;46.452;16.994;2023-09-07T00:49:48;100418.78;;;16.21;84.95
75629;BME280;64213;46.452;16.994;2023-09-07T00:52:51;100421.94;;;16.15;85.75
75629;BME280;64213;46.452;16.994;2023-09-07T00:55:55;100421.22;;;16.13;85.91
75629;BME280;64213;46.452;16.994;2023-09-07T00:58:58;100422.28;;;16.10;85.99
75629;BME280;64213;46.452;16.994;2023-09-07T01:02:02;100418.78;;;16.10;86.10
75629;BME280;64213;46.452;16.994;2023-09-07T01:05:07;100416.25;;;16.08;85.99
75629;BME280;64213;46.452;16.994;2023-09-07T01:08:16;100425.09;;;15.97;86.08
75629;BME280;64213;46.452;16.994;2023-09-07T01:11:21;100421.97;;;15.92;86.34
75629;BME280;64213;46.452;16.994;2023-09-07T01:14:24;100427.31;;;15.92;86.76
75629;BME280;64213;46.452;16.994;2023-09-07T01:17:27;100426.56;;;15.79;86.64
75629;BME280;64213;46.452;16.994;2023-09-07T01:20:32;100431.44;;;15.74;87.29
75629;BME280;64213;46.452;16.994;2023-09-07T01:23:39;100433.50;;;15.70;88.11
75629;BME280;64213;46.452;16.994;2023-09-07T01:26:42;100431.78;;;15.69;88.21
75629;BME280;64213;46.452;16.994;2023-09-07T01:29:44;100430.94;;;15.69;87.40
75629;BME280;64213;46.452;16.994;2023-09-07T01:32:47;100429.25;;;15.68;87.97
75629;BME280;64213;46.452;16.994;2023-09-07T01:35:51;100431.28;;;15.64;88.23
75629;BME280;64213;46.452;16.994;2023-09-07T01:38:54;100427.88;;;15.62;87.81
75629;BME280;64213;46.452;16.994;2023-09-07T01:41:56;100429.22;;;15.56;87.74
75629;BME280;64213;46.452;16.994;2023-09-07T01:44:58;100427.66;;;15.54;88.35
75629;BME280;64213;46.452;16.994;2023-09-07T01:48:01;100437.69;;;15.50;88.60
75629;BME280;64213;46.452;16.994;2023-09-07T01:51:03;100424.59;;;15.47;88.53
75629;BME280;64213;46.452;16.994;2023-09-07T01:54:07;100424.38;;;15.39;88.91
75629;BME280;64213;46.452;16.994;2023-09-07T01:57:11;100418.91;;;15.29;89.18
75629;BME280;64213;46.452;16.994;2023-09-07T02:00:13;100413.56;;;15.29;89.52
75629;BME280;64213;46.452;16.994;2023-09-07T02:03:16;100410.78;;;15.31;89.08
75629;BME280;64213;46.452;16.994;2023-09-07T02:06:18;100416.47;;;15.26;89.40
75629;BME280;64213;46.452;16.994;2023-09-07T02:09:21;100409.56;;;15.24;89.35
75629;BME280;64213;46.452;16.994;2023-09-07T02:12:23;100415.12;;;15.21;89.86
75629;BME280;64213;46.452;16.994;2023-09-07T02:15:25;100408.97;;;15.20;90.46
75629;BME280;64213;46.452;16.994;2023-09-07T02:18:27;100411.25;;;15.14;89.76
75629;BME280;64213;46.452;16.994;2023-09-07T02:21:30;100417.16;;;15.06;90.07
75629;BME280;64213;46.452;16.994;2023-09-07T02:24:33;100421.16;;;15.11;90.65
75629;BME280;64213;46.452;16.994;2023-09-07T02:27:35;100421.03;;;15.02;90.07
75629;BME280;64213;46.452;16.994;2023-09-07T02:30:38;100418.25;;;15.03;90.12
75629;BME280;64213;46.452;16.994;2023-09-07T02:33:40;100424.44;;;15.04;90.05
75629;BME280;64213;46.452;16.994;2023-09-07T02:36:43;100425.50;;;15.01;90.45
75629;BME280;64213;46.452;16.994;2023-09-07T02:39:45;100426.47;;;15.00;90.43
75629;BME280;64213;46.452;16.994;2023-09-07T02:42:47;100428.31;;;15.00;90.40
75629;BME280;64213;46.452;16.994;2023-09-07T02:45:50;100432.03;;;14.97;90.37
75629;BME280;64213;46.452;16.994;2023-09-07T02:48:52;100422.84;;;14.90;90.36
75629;BME280;64213;46.452;16.994;2023-09-07T02:51:58;100430.06;;;14.88;90.84
75629;BME280;64213;46.452;16.994;2023-09-07T02:55:00;100438.28;;;14.85;90.97
75629;BME280;64213;46.452;16.994;2023-09-07T02:58:03;100437.41;;;14.73;90.91
75629;BME280;64213;46.452;16.994;2023-09-07T03:01:06;100429.31;;;14.75;91.66
75629;BME280;64213;46.452;16.994;2023-09-07T03:04:11;100431.84;;;14.76;91.57
75629;BME280;64213;46.452;16.994;2023-09-07T03:07:14;100436.09;;;14.79;90.97
75629;BME280;64213;46.452;16.994;2023-09-07T03:10:16;100429.41;;;14.73;91.22
75629;BME280;64213;46.452;16.994;2023-09-07T03:13:19;100437.63;;;14.70;91.65
75629;BME280;64213;46.452;16.994;2023-09-07T03:16:21;100434.34;;;14.67;91.80
75629;BME280;64213;46.452;16.994;2023-09-07T03:19:24;100438.00;;;14.65;92.13
75629;BME280;64213;46.452;16.994;2023-09-07T03:22:26;100428.41;;;14.63;91.84
75629;BME280;64213;46.452;16.994;2023-09-07T03:25:30;100440.87;;;14.62;91.98
75629;BME280;64213;46.452;16.994;2023-09-07T03:28:33;100435.88;;;14.58;91.76
75629;BME280;64213;46.452;16.994;2023-09-07T03:31:36;100443.03;;;14.57;91.69
75629;BME280;64213;46.452;16.994;2023-09-07T03:34:38;100442.31;;;14.55;92.63
75629;BME280;64213;46.452;16.994;2023-09-07T03:37:42;100436.00;;;14.56;92.76
75629;BME280;64213;46.452;16.994;2023-09-07T03:40:44;100429.09;;;14.54;93.03
75629;BME280;64213;46.452;16.994;2023-09-07T03:43:47;100438.69;;;14.43;92.69
75629;BME280;64213;46.452;16.994;2023-09-07T03:46:49;100443.28;;;14.41;93.15
75629;BME280;64213;46.452;16.994;2023-09-07T03:49:52;100446.28;;;14.37;92.92
75629;BME280;64213;46.452;16.994;2023-09-07T03:52:54;100443.31;;;14.29;93.39
75629;BME280;64213;46.452;16.994;2023-09-07T03:55:56;100449.00;;;14.24;93.62
75629;BME280;64213;46.452;16.994;2023-09-07T03:58:59;100448.59;;;14.17;93.98
75629;BME280;64213;46.452;16.994;2023-09-07T04:02:01;100453.81;;;14.06;94.45
75629;BME280;64213;46.452;16.994;2023-09-07T04:05:04;100456.59;;;14.05;94.46
75629;BME280;64213;46.452;16.994;2023-09-07T04:08:07;100448.22;;;13.98;94.75
75629;BME280;64213;46.452;16.994;2023-09-07T04:11:09;100458.06;;;14.09;93.98
75629;BME280;64213;46.452;16.994;2023-09-07T04:14:11;100447.09;;;14.13;93.91
75629;BME280;64213;46.452;16.994;2023-09-07T04:17:14;100446.87;;;14.16;93.72
75629;BME280;64213;46.452;16.994;2023-09-07T04:20:16;100458.41;;;14.04;93.86
75629;BME280;64213;46.452;16.994;2023-09-07T04:23:19;100458.50;;;14.03;93.91
75629;BME280;64213;46.452;16.994;2023-09-07T04:26:21;100465.03;;;13.99;93.88
75629;BME280;64213;46.452;16.994;2023-09-07T04:29:23;100465.44;;;14.05;93.84
75629;BME280;64213;46.452;16.994;2023-09-07T04:32:26;100472.34;;;14.08;93.39
75629;BME280;64213;46.452;16.994;2023-09-07T04:35:29;100471.28;;;14.10;93.19
75629;BME280;64213;46.452;16.994;2023-09-07T04:38:34;100468.31;;;14.02;93.46
75629;BME280;64213;46.452;16.994;2023-09-07T04:41:37;100470.41;;;14.10;93.07
75629;BME280;64213;46.452;16.994;2023-09-07T04:44:39;100471.50;;;14.07;93.07
75629;BME280;64213;46.452;16.994;2023-09-07T04:47:41;100477.66;;;14.08;92.93
75629;BME280;64213;46.452;16.994;2023-09-07T04:50:44;100475.44;;;14.02;93.21
75629;BME280;64213;46.452;16.994;2023-09-07T04:53:46;100481.41;;;14.05;93.06
75629;BME280;64213;46.452;16.994;2023-09-07T04:56:49;100484.25;;;14.15;92.97
75629;BME280;64213;46.452;16.994;2023-09-07T04:59:51;100487.53;;;14.18;92.44
75629;BME280;64213;46.452;16.994;2023-09-07T05:02:54;100481.94;;;14.10;92.75
75629;BME280;64213;46.452;16.994;2023-09-07T05:05:56;100480.00;;;14.12;92.67
75629;BME280;64213;46.452;16.994;2023-09-07T05:08:58;100487.09;;;14.25;92.89
75629;BME280;64213;46.452;16.994;2023-09-07T05:12:00;100491.00;;;14.32;92.81
75629;BME280;64213;46.452;16.994;2023-09-07T05:15:04;100493.44;;;14.35;92.56
75629;BME280;64213;46.452;16.994;2023-09-07T05:18:09;100497.13;;;14.45;92.04
75629;BME280;64213;46.452;16.994;2023-09-07T05:21:14;100510.22;;;14.48;91.46
75629;BME280;64213;46.452;16.994;2023-09-07T05:24:17;100502.44;;;14.58;91.11
75629;BME280;64213;46.452;16.994;2023-09-07T05:27:19;100513.69;;;14.74;90.92
75629;BME280;64213;46.452;16.994;2023-09-07T05:30:22;100511.37;;;15.05;89.75
75629;BME280;64213;46.452;16.994;2023-09-07T05:33:24;100521.03;;;15.30;88.86
75629;BME280;64213;46.452;16.994;2023-09-07T05:36:27;100518.78;;;15.48;88.05
75629;BME280;64213;46.452;16.994;2023-09-07T05:39:29;100516.62;;;15.64;87.29
75629;BME280;64213;46.452;16.994;2023-09-07T05:42:32;100519.81;;;15.92;86.74
75629;BME280;64213;46.452;16.994;2023-09-07T05:45:36;100520.56;;;16.27;85.40
75629;BME280;64213;46.452;16.994;2023-09-07T05:48:38;100515.03;;;16.63;84.17
75629;BME280;64213;46.452;16.994;2023-09-07T05:51:41;100510.25;;;17.10;82.72
75629;BME280;64213;46.452;16.994;2023-09-07T05:54:43;100521.63;;;17.65;80.93
75629;BME280;64213;46.452;16.994;2023-09-07T05:57:45;100514.87;;;17.92;80.05
75629;BME280;64213;46.452;16.994;2023-09-07T06:00:48;100516.97;;;18.19;79.21
75629;BME280;64213;46.452;16.994;2023-09-07T06:03:51;100515.88;;;18.81;76.79
75629;BME280;64213;46.452;16.994;2023-09-07T06:06:53;100518.56;;;18.91;76.41
75629;BME280;64213;46.452;16.994;2023-09-07T06:09:55;100521.22;;;19.39;74.82
75629;BME280;64213;46.452;16.994;2023-09-07T06:13:00;100525.53;;;19.89;73.43
75629;BME280;64213;46.452;16.994;2023-09-07T06:16:05;100528.81;;;20.38;71.79
75629;BME280;64213;46.452;16.994;2023-09-07T06:19:07;100533.84;;;20.96;69.49
75629;BME280;64213;46.452;16.994;2023-09-07T06:22:09;100535.47;;;21.07;69.03
75629;BME280;64213;46.452;16.994;2023-09-07T06:25:12;100534.00;;;21.30;65.96
75629;BME280;64213;46.452;16.994;2023-09-07T06:28:15;100531.81;;;21.70;64.48
75629;BME280;64213;46.452;16.994;2023-09-07T06:31:17;100538.69;;;21.98;61.99
75629;BME280;64213;46.452;16.994;2023-09-07T06:34:20;100535.66;;;22.19;62.62
75629;BME280;64213;46.452;16.994;2023-09-07T06:37:23;100540.81;;;22.47;60.43
75629;BME280;64213;46.452;16.994;2023-09-07T06:40:26;100543.41;;;22.73;58.99
75629;BME280;64213;46.452;16.994;2023-09-07T06:43:29;100542.63;;;22.89;54.42
75629;BME280;64213;46.452;16.994;2023-09-07T06:46:33;100541.47;;;23.32;53.33
75629;BME280;64213;46.452;16.994;2023-09-07T06:49:38;100538.44;;;23.35;51.34
75629;BME280;64213;46.452;16.994;2023-09-07T06:52:40;100532.53;;;23.15;51.68
75629;BME280;64213;46.452;16.994;2023-09-07T06:55:42;100538.25;;;23.86;51.96
75629;BME280;64213;46.452;16.994;2023-09-07T06:58:44;100542.97;;;23.92;50.75
75629;BME280;64213;46.452;16.994;2023-09-07T07:01:47;100546.16;;;24.04;49.65
75629;BME280;64213;46.452;16.994;2023-09-07T07:04:49;100533.22;;;24.30;49.48
75629;BME280;64213;46.452;16.994;2023-09-07T07:07:52;100546.81;;;24.85;48.97
75629;BME280;64213;46.452;16.994;2023-09-07T07:10:55;100539.75;;;25.29;47.37
75629;BME280;64213;46.452;16.994;2023-09-07T07:13:57;100538.81;;;25.22;46.71
75629;BME280;64213;46.452;16.994;2023-09-07T07:17:00;100536.44;;;25.42;45.87
75629;BME280;64213;46.452;16.994;2023-09-07T07:20:07;100543.16;;;25.84;45.57
75629;BME280;64213;46.452;16.994;2023-09-07T07:23:10;100544.03;;;25.47;44.76
75629;BME280;64213;46.452;16.994;2023-09-07T07:26:13;100554.63;;;25.34;44.50
75629;BME280;64213;46.452;16.994;2023-09-07T07:29:15;100535.37;;;25.66;44.25
75629;BME280;64213;46.452;16.994;2023-09-07T07:32:18;100543.09;;;26.07;42.83
75629;BME280;64213;46.452;16.994;2023-09-07T07:35:21;100544.84;;;26.59;42.86
75629;BME280;64213;46.452;16.994;2023-09-07T07:38:23;100553.03;;;26.81;41.85
75629;BME280;64213;46.452;16.994;2023-09-07T07:41:26;100548.13;;;26.91;41.54
75629;BME280;64213;46.452;16.994;2023-09-07T07:44:28;100554.09;;;26.65;40.96
75629;BME280;64213;46.452;16.994;2023-09-07T07:47:31;100553.94;;;26.52;41.47
75629;BME280;64213;46.452;16.994;2023-09-07T07:50:39;100555.94;;;26.79;41.58
75629;BME280;64213;46.452;16.994;2023-09-07T07:53:42;100560.84;;;27.48;40.67
75629;BME280;64213;46.452;16.994;2023-09-07T07:56:44;100566.16;;;27.63;40.08
75629;BME280;64213;46.452;16.994;2023-09-07T07:59:47;100563.47;;;27.91;38.83
75629;BME280;64213;46.452;16.994;2023-09-07T08:02:49;100556.81;;;28.35;39.01
75629;BME280;64213;46.452;16.994;2023-09-07T08:05:51;100559.91;;;27.91;39.25
75629;BME280;64213;46.452;16.994;2023-09-07T08:08:54;100556.78;;;28.22;38.52
75629;BME280;64213;46.452;16.994;2023-09-07T08:11:57;100564.16;;;28.83;37.88
75629;BME280;64213;46.452;16.994;2023-09-07T08:14:59;100565.06;;;28.14;38.86
75629;BME280;64213;46.452;16.994;2023-09-07T08:18:02;100564.97;;;28.70;38.11
75629;BME280;64213;46.452;16.994;2023-09-07T08:21:06;100564.47;;;29.08;36.64
75629;BME280;64213;46.452;16.994;2023-09-07T08:24:08;100566.63;;;28.71;37.42
75629;BME280;64213;46.452;16.994;2023-09-07T08:27:11;100569.63;;;28.89;37.61
75629;BME280;64213;46.452;16.994;2023-09-07T08:30:20;100569.09;;;29.14;36.67
75629;BME280;64213;46.452;16.994;2023-09-07T08:33:25;100573.09;;;29.44;36.93
75629;BME280;64213;46.452;16.994;2023-09-07T08:36:32;100557.16;;;29.41;35.81
75629;BME280;64213;46.452;16.994;2023-09-07T08:39:36;100564.03;;;30.10;35.63
75629;BME280;64213;46.452;16.994;2023-09-07T08:42:41;100561.78;;;29.61;35.88
75629;BME280;64213;46.452;16.994;2023-09-07T08:45:50;100559.88;;;30.01;35.29
75629;BME280;64213;46.452;16.994;2023-09-07T08:48:54;100557.06;;;30.41;34.85
75629;BME280;64213;46.452;16.994;2023-09-07T08:52:01;100555.84;;;30.10;34.82
75629;BME280;64213;46.452;16.994;2023-09-07T08:55:05;100555.50;;;29.94;35.40
75629;BME280;64213;46.452;16.994;2023-09-07T08:58:09;100559.72;;;30.61;34.35
75629;BME280;64213;46.452;16.994;2023-09-07T09:01:11;100564.28;;;29.89;34.54
75629;BME280;64213;46.452;16.994;2023-09-07T09:04:15;100558.31;;;31.22;32.99
75629;BME280;64213;46.452;16.994;2023-09-07T09:07:19;100558.50;;;31.34;33.08
75629;BME280;64213;46.452;16.994;2023-09-07T09:10:21;100545.91;;;31.51;32.64
75629;BME280;64213;46.452;16.994;2023-09-07T09:13:29;100542.84;;;30.77;33.10
75629;BME280;64213;46.452;16.994;2023-09-07T09:16:31;100546.53;;;31.53;31.77
75629;BME280;64213;46.452;16.994;2023-09-07T09:19:35;100548.59;;;31.58;31.75
75629;BME280;64213;46.452;16.994;2023-09-07T09:22:38;100541.25;;;32.02;31.21
75629;BME280;64213;46.452;16.994;2023-09-07T09:25:41;100547.75;;;31.57;31.70
75629;BME280;64213;46.452;16.994;2023-09-07T09:28:47;100542.22;;;32.26;30.97
75629;BME280;64213;46.452;16.994;2023-09-07T09:31:51;100542.69;;;32.23;29.26
75629;BME280;64213;46.452;16.994;2023-09-07T09:34:54;100540.59;;;32.43;29.54
75629;BME280;64213;46.452;16.994;2023-09-07T09:38:00;100533.22;;;33.58;28.31
75629;BME280;64213;46.452;16.994;2023-09-07T09:41:06;100528.09;;;34.08;28.04
75629;BME280;64213;46.452;16.994;2023-09-07T09:44:12;100533.84;;;33.18;28.55
75629;BME280;64213;46.452;16.994;2023-09-07T09:47:15;100531.25;;;34.40;27.18
75629;BME280;64213;46.452;16.994;2023-09-07T09:50:18;100534.91;;;34.58;27.27
75629;BME280;64213;46.452;16.994;2023-09-07T09:53:20;100538.13;;;33.67;27.52
75629;BME280;64213;46.452;16.994;2023-09-07T09:56:25;100532.84;;;32.70;28.77
75629;BME280;64213;46.452;16.994;2023-09-07T09:59:28;100531.44;;;32.79;28.94
75629;BME280;64213;46.452;16.994;2023-09-07T10:02:31;100521.78;;;33.61;27.55
75629;BME280;64213;46.452;16.994;2023-09-07T10:05:33;100527.19;;;33.37;27.37
75629;BME280;64213;46.452;16.994;2023-09-07T10:08:38;100516.91;;;34.38;26.64
75629;BME280;64213;46.452;16.994;2023-09-07T10:11:41;100522.94;;;34.64;25.44
75629;BME280;64213;46.452;16.994;2023-09-07T10:14:43;100520.34;;;33.70;26.08
75629;BME280;64213;46.452;16.994;2023-09-07T10:17:47;100525.59;;;33.83;25.99
75629;BME280;64213;46.452;16.994;2023-09-07T10:20:56;100513.75;;;33.94;26.13
75629;BME280;64213;46.452;16.994;2023-09-07T10:24:00;100507.72;;;34.73;25.57
75629;BME280;64213;46.452;16.994;2023-09-07T10:27:07;100502.38;;;34.66;25.63
75629;BME280;64213;46.452;16.994;2023-09-07T10:30:11;100501.87;;;34.29;25.55
75629;BME280;64213;46.452;16.994;2023-09-07T10:33:21;100504.28;;;34.25;24.87
75629;BME280;64213;46.452;16.994;2023-09-07T10:36:25;100506.13;;;33.85;24.75
75629;BME280;64213;46.452;16.994;2023-09-07T10:39:31;100498.37;;;34.74;24.23
75629;BME280;64213;46.452;16.994;2023-09-07T10:42:33;100491.88;;;34.52;24.94
75629;BME280;64213;46.452;16.994;2023-09-07T10:45:36;100489.34;;;34.62;24.42
75629;BME280;64213;46.452;16.994;2023-09-07T10:48:38;100490.41;;;34.32;24.43
75629;BME280;64213;46.452;16.994;2023-09-07T10:51:42;100485.97;;;35.17;23.83
75629;BME280;64213;46.452;16.994;2023-09-07T10:54:55;100474.25;;;36.21;23.11
75629;BME280;64213;46.452;16.994;2023-09-07T10:57:58;100481.72;;;34.81;24.85
75629;BME280;64213;46.452;16.994;2023-09-07T11:01:01;100479.66;;;35.72;24.01
75629;BME280;64213;46.452;16.994;2023-09-07T11:04:05;100474.16;;;35.72;23.58
75629;BME280;64213;46.452;16.994;2023-09-07T11:07:11;100476.84;;;34.14;25.39
75629;BME280;64213;46.452;16.994;2023-09-07T11:10:14;100473.22;;;36.27;22.97
75629;BME280;64213;46.452;16.994;2023-09-07T11:13:17;100463.44;;;34.58;24.55
75629;BME280;64213;46.452;16.994;2023-09-07T11:16:19;100461.97;;;35.29;23.66
75629;BME280;64213;46.452;16.994;2023-09-07T11:19:22;100461.91;;;36.02;23.11
75629;BME280;64213;46.452;16.994;2023-09-07T11:22:24;100466.28;;;36.47;22.97
75629;BME280;64213;46.452;16.994;2023-09-07T11:25:27;100458.28;;;35.79;23.61
75629;BME280;64213;46.452;16.994;2023-09-07T11:28:30;100458.41;;;34.26;24.92
75629;BME280;64213;46.452;16.994;2023-09-07T11:31:32;100457.78;;;35.82;22.98
75629;BME280;64213;46.452;16.994;2023-09-07T11:34:35;100468.94;;;35.71;22.75
75629;BME280;64213;46.452;16.994;2023-09-07T11:37:37;100462.97;;;34.61;22.54
75629;BME280;64213;46.452;16.994;2023-09-07T11:40:39;100453.41;;;35.48;22.29
75629;BME280;64213;46.452;16.994;2023-09-07T11:43:45;100452.06;;;36.55;21.84
75629;BME280;64213;46.452;16.994;2023-09-07T11:46:47;100447.47;;;34.55;23.70
75629;BME280;64213;46.452;16.994;2023-09-07T11:49:50;100447.25;;;34.90;23.40
75629;BME280;64213;46.452;16.994;2023-09-07T11:52:55;100450.72;;;35.14;23.43
75629;BME280;64213;46.452;16.994;2023-09-07T11:55:57;100442.53;;;35.75;22.68
75629;BME280;64213;46.452;16.994;2023-09-07T11:59:00;100436.19;;;36.18;21.81
75629;BME280;64213;46.452;16.994;2023-09-07T12:02:02;100434.72;;;33.96;23.58
75629;BME280;64213;46.452;16.994;2023-09-07T12:05:06;100430.50;;;35.81;21.88
75629;BME280;64213;46.452;16.994;2023-09-07T12:08:11;100434.47;;;36.12;21.67
75629;BME280;64213;46.452;16.994;2023-09-07T12:11:14;100432.25;;;35.87;22.08
75629;BME280;64213;46.452;16.994;2023-09-07T12:14:16;100436.16;;;36.62;21.70
75629;BME280;64213;46.452;16.994;2023-09-07T12:17:18;100422.63;;;35.68;22.72
75629;BME280;64213;46.452;16.994;2023-09-07T12:20:22;100422.03;;;36.86;21.62
75629;BME280;64213;46.452;16.994;2023-09-07T12:23:24;100431.00;;;37.03;21.54
75629;BME280;64213;46.452;16.994;2023-09-07T12:26:27;100419.38;;;36.42;22.19
75629;BME280;64213;46.452;16.994;2023-09-07T12:29:29;100414.19;;;35.96;22.03
75629;BME280;64213;46.452;16.994;2023-09-07T12:32:32;100400.72;;;35.56;22.17
75629;BME280;64213;46.452;16.994;2023-09-07T12:35:35;100404.34;;;33.86;24.44
75629;BME280;64213;46.452;16.994;2023-09-07T12:38:37;100407.66;;;34.29;23.69
75629;BME280;64213;46.452;16.994;2023-09-07T12:41:39;100404.56;;;35.77;22.29
75629;BME280;64213;46.452;16.994;2023-09-07T12:44:42;100397.81;;;35.90;22.10
75629;BME280;64213;46.452;16.994;2023-09-07T12:47:45;100398.38;;;34.75;23.42
75629;BME280;64213;46.452;16.994;2023-09-07T12:50:47;100390.13;;;35.09;23.44
75629;BME280;64213;46.452;16.994;2023-09-07T12:53:50;100391.62;;;36.48;22.07
75629;BME280;64213;46.452;16.994;2023-09-07T12:56:53;100378.97;;;36.85;21.27
75629;BME280;64213;46.452;16.994;2023-09-07T12:59:55;100375.66;;;37.15;21.40
75629;BME280;64213;46.452;16.994;2023-09-07T13:02:58;100375.00;;;37.03;21.39
75629;BME280;64213;46.452;16.994;2023-09-07T13:06:01;100374.59;;;37.74;21.04
75629;BME280;64213;46.452;16.994;2023-09-07T13:09:05;100377.50;;;37.04;21.58
75629;BME280;64213;46.452;16.994;2023-09-07T13:12:07;100377.97;;;36.31;21.76
75629;BME280;64213;46.452;16.994;2023-09-07T13:15:09;100366.37;;;36.94;21.72
75629;BME280;64213;46.452;16.994;2023-09-07T13:18:12;100368.44;;;36.44;22.03
75629;BME280;64213;46.452;16.994;2023-09-07T13:21:15;100369.50;;;35.50;22.82
75629;BME280;64213;46.452;16.994;2023-09-07T13:24:17;100369.13;;;35.03;23.56
75629;BME280;64213;46.452;16.994;2023-09-07T13:27:20;100373.94;;;36.17;22.69
75629;BME280;64213;46.452;16.994;2023-09-07T13:30:22;100373.25;;;36.59;22.55
75629;BME280;64213;46.452;16.994;2023-09-07T13:33:25;100371.97;;;36.40;22.93
75629;BME280;64213;46.452;16.994;2023-09-07T13:36:27;100363.16;;;36.70;22.66
75629;BME280;64213;46.452;16.994;2023-09-07T13:39:30;100360.31;;;35.39;23.57
75629;BME280;64213;46.452;16.994;2023-09-07T13:42:32;100359.28;;;33.99;25.30
75629;BME280;64213;46.452;16.994;2023-09-07T13:46:03;100363.09;;;34.55;24.34
75629;BME280;64213;46.452;16.994;2023-09-07T13:49:09;100357.84;;;34.87;24.89
75629;BME280;64213;46.452;16.994;2023-09-07T13:52:12;100347.56;;;35.33;24.46
75629;BME280;64213;46.452;16.994;2023-09-07T13:55:15;100342.72;;;33.53;27.32
75629;BME280;64213;46.452;16.994;2023-09-07T13:58:18;100344.91;;;33.80;27.00
75629;BME280;64213;46.452;16.994;2023-09-07T14:01:21;100348.56;;;34.26;26.54
75629;BME280;64213;46.452;16.994;2023-09-07T14:04:24;100348.06;;;34.46;26.54
75629;BME280;64213;46.452;16.994;2023-09-07T14:07:27;100340.12;;;33.87;27.15
75629;BME280;64213;46.452;16.994;2023-09-07T14:10:30;100335.81;;;33.51;27.80
75629;BME280;64213;46.452;16.994;2023-09-07T14:13:32;100333.78;;;33.58;27.77
75629;BME280;64213;46.452;16.994;2023-09-07T14:16:37;100338.06;;;34.23;26.98
75629;BME280;64213;46.452;16.994;2023-09-07T14:19:39;100343.06;;;34.26;26.93
75629;BME280;64213;46.452;16.994;2023-09-07T14:22:42;100334.25;;;33.95;27.27
75629;BME280;64213;46.452;16.994;2023-09-07T14:25:44;100339.72;;;33.43;27.82
75629;BME280;64213;46.452;16.994;2023-09-07T14:28:46;100325.94;;;32.91;28.52
75629;BME280;64213;46.452;16.994;2023-09-07T14:31:49;100335.69;;;32.22;29.46
75629;BME280;64213;46.452;16.994;2023-09-07T14:34:52;100335.69;;;33.34;28.26
75629;BME280;64213;46.452;16.994;2023-09-07T14:37:54;100326.66;;;32.98;28.55
75629;BME280;64213;46.452;16.994;2023-09-07T14:40:56;100333.56;;;32.24;29.34
75629;BME280;64213;46.452;16.994;2023-09-07T14:43:58;100334.03;;;32.21;29.45
75629;BME280;64213;46.452;16.994;2023-09-07T14:47:01;100333.56;;;32.35;29.35
75629;BME280;64213;46.452;16.994;2023-09-07T14:50:04;100324.41;;;32.30;29.33
75629;BME280;64213;46.452;16.994;2023-09-07T14:53:06;100327.94;;;32.60;29.15
75629;BME280;64213;46.452;16.994;2023-09-07T14:56:09;100331.34;;;31.84;30.19
75629;BME280;64213;46.452;16.994;2023-09-07T14:59:11;100320.12;;;31.73;30.28
75629;BME280;64213;46.452;16.994;2023-09-07T15:02:14;100328.31;;;31.92;30.12
75629;BME280;64213;46.452;16.994;2023-09-07T15:05:16;100322.31;;;31.28;31.32
75629;BME280;64213;46.452;16.994;2023-09-07T15:08:19;100319.91;;;31.57;30.51
75629;BME280;64213;46.452;16.994;2023-09-07T15:11:22;100315.91;;;31.59;30.64
75629;BME280;64213;46.452;16.994;2023-09-07T15:14:25;100321.16;;;30.99;31.61
75629;BME280;64213;46.452;16.994;2023-09-07T15:17:28;100320.22;;;30.87;31.68
75629;BME280;64213;46.452;16.994;2023-09-07T15:20:30;100314.03;;;30.73;31.76
75629;BME280;64213;46.452;16.994;2023-09-07T15:23:33;100313.28;;;30.59;32.27
75629;BME280;64213;46.452;16.994;2023-09-07T15:26:42;100317.56;;;30.23;33.06
75629;BME280;64213;46.452;16.994;2023-09-07T15:29:45;100310.28;;;30.67;32.38
75629;BME280;64213;46.452;16.994;2023-09-07T15:32:48;100314.13;;;30.59;32.59
75629;BME280;64213;46.452;16.994;2023-09-07T15:35:51;100313.16;;;30.54;32.60
75629;BME280;64213;46.452;16.994;2023-09-07T15:38:54;100311.75;;;30.45;32.59
75629;BME280;64213;46.452;16.994;2023-09-07T15:41:57;100308.16;;;30.19;32.86
75629;BME280;64213;46.452;16.994;2023-09-07T15:44:59;100310.09;;;30.37;32.60